Wes Sellars — WDF9302 — position and weather

sailwx.info

Track history (hours):
 
Tides and Currents Weather Stations Pressure Air Temp Water Temp Dewpoint Dewpoint Depression Visibility Wind Speed Wind Dir Waves Ship Positions

Wes Sellars

Owner: Florida Marine, LLC, Mandeville, LA. More information available from US FCC via Universal Licensing System and Coast Guard Vessel Documentation Center.

Last reported at 2015-Mar-02 16:17 UTC. Time now 2015-Mar-02 23:08 UTC.
Position N 29°46' W 095°06'.

Length 27 m.

Type: Towing. MMSI: 367503760.

Date/timePositionNaut miles runAvg speedWind from/ knotsBaromVisibWave heightAir tempDewpointWater temp
2015-Mar-02 16:17N 29°46' W 095°06'0 0.0
2015-Mar-02 14:33N 29°46' W 095°06'0 0.0
2015-Mar-01 23:19N 29°46' W 095°06'1 1.5
2015-Mar-01 22:32N 29°46' W 095°05'0 0.0
2015-Mar-01 20:05N 29°46' W 095°05'0 0.0
2015-Mar-01 14:16N 29°46' W 095°05'0 0.0
2015-Mar-01 13:32N 29°46' W 095°05'0 0.0
2015-Mar-01 10:32N 29°46' W 095°05'0 0.0
2015-Mar-01 04:33N 29°46' W 095°05'2 1.1
2015-Mar-01 03:07N 29°45' W 095°06'0 0.1
2015-Mar-01 02:31N 29°45' W 095°06'0 0.0
2015-Mar-01 01:33N 29°45' W 095°06'0 0.0
2015-Mar-01 00:16N 29°45' W 095°06'0 0.0
2015-Feb-28 23:07N 29°45' W 095°06'0 0.0
2015-Feb-28 11:07N 29°45' W 095°06'2 0.9
2015-Feb-28 08:33N 29°47' W 095°04'1 0.7
2015-Feb-28 07:33N 29°47' W 095°04'1 0.4
2015-Feb-28 04:33N 29°46' W 095°05'1 0.1
2015-Feb-27 19:10N 29°46' W 095°06'0 0.0
2015-Feb-27 18:33N 29°46' W 095°06'0 0.0
2015-Feb-27 17:33N 29°46' W 095°06'0 0.0
2015-Feb-27 16:33N 29°46' W 095°06'0 0.0
2015-Feb-27 15:33N 29°46' W 095°06'0 0.0
2015-Feb-27 14:33N 29°46' W 095°06'0 0.0
2015-Feb-27 01:31N 29°46' W 095°06'0 0.0
2015-Feb-27 00:30N 29°46' W 095°06'0 0.0
2015-Feb-26 22:08N 29°46' W 095°06'0 0.0
2015-Feb-26 21:28N 29°46' W 095°06'0 0.0
2015-Feb-26 20:33N 29°46' W 095°06'0 0.0
2015-Feb-26 19:33N 29°46' W 095°06'0 0.0
2015-Feb-26 18:30N 29°46' W 095°06'0 0.0
2015-Feb-26 17:31N 29°46' W 095°06'0 0.0
2015-Feb-26 15:16N 29°46' W 095°06'0 0.0
2015-Feb-26 14:33N 29°46' W 095°06'0 0.0
2015-Feb-26 13:32N 29°46' W 095°06'0 0.0
2015-Feb-26 12:33N 29°46' W 095°06'0 0.0
2015-Feb-26 11:28N 29°46' W 095°06'0 0.0
2015-Feb-26 10:33N 29°46' W 095°06'0 0.0
2015-Feb-26 09:30N 29°46' W 095°06'0 0.0
2015-Feb-26 08:33N 29°46' W 095°06'2 2.1
2015-Feb-26 07:28N 29°47' W 095°04'0 0.0
2015-Feb-26 06:32N 29°47' W 095°04'3 3.3
2015-Feb-26 05:33N 29°45' W 095°06'5 0.4
2015-Feb-25 14:21N 29°44' W 095°12'0 0.0
2015-Feb-25 02:23N 29°44' W 095°12'6 7.2
2015-Feb-25 01:33N 29°46' W 095°05'2 1.1
2015-Feb-24 23:33N 29°47' W 095°04'0 0.0
2015-Feb-24 22:33N 29°47' W 095°04'0 0.0
2015-Feb-24 21:30N 29°47' W 095°04'0 0.0
2015-Feb-24 20:33N 29°47' W 095°04'2 0.3
2015-Feb-24 13:33N 29°46' W 095°06'0 0.0
2015-Feb-24 12:33N 29°46' W 095°06'0 0.0
2015-Feb-24 11:33N 29°46' W 095°06'0 0.0
2015-Feb-24 10:33N 29°46' W 095°06'0 0.0
2015-Feb-24 09:25N 29°46' W 095°06'0 0.0
2015-Feb-24 05:13N 29°46' W 095°06'0 0.0
2015-Feb-24 04:33N 29°46' W 095°06'0 0.0
2015-Feb-24 03:33N 29°46' W 095°06'0 0.0
2015-Feb-24 02:33N 29°46' W 095°06'0 0.0
2015-Feb-24 01:33N 29°46' W 095°06'0 0.0
2015-Feb-24 00:33N 29°46' W 095°06'0 0.0
2015-Feb-23 23:32N 29°46' W 095°06'0 0.0
2015-Feb-23 22:33N 29°46' W 095°06'0 0.0
2015-Feb-23 21:33N 29°46' W 095°06'0 0.0
2015-Feb-23 20:33N 29°46' W 095°06'0 0.0
2015-Feb-23 19:33N 29°46' W 095°06'0 0.0
2015-Feb-23 17:29N 29°46' W 095°06'0 0.0
2015-Feb-23 16:33N 29°46' W 095°06'0 0.0
2015-Feb-23 15:31N 29°46' W 095°06'0 0.0
2015-Feb-23 14:25N 29°46' W 095°06'0 0.0
2015-Feb-23 13:33N 29°46' W 095°06'0 0.0
2015-Feb-23 12:33N 29°46' W 095°06'0 0.0
2015-Feb-23 11:33N 29°46' W 095°06'0 0.0
2015-Feb-23 10:27N 29°46' W 095°06'0 0.0
2015-Feb-23 09:29N 29°46' W 095°06'1 1.3
2015-Feb-23 08:34N 29°46' W 095°05'2 1.7
2015-Feb-23 07:34N 29°47' W 095°04'1 1.2
2015-Feb-23 06:33N 29°46' W 095°05'0 0.0
2015-Feb-23 05:33N 29°46' W 095°05'0 0.0
2015-Feb-23 04:33N 29°46' W 095°05'0 0.0
2015-Feb-23 03:33N 29°46' W 095°05'0 0.0
2015-Feb-23 02:33N 29°46' W 095°05'0 0.0
2015-Feb-23 01:33N 29°46' W 095°05'1 0.8
2015-Feb-23 00:28N 29°47' W 095°05'0 0.0
2015-Feb-22 23:33N 29°47' W 095°05'0 0.0
2015-Feb-22 22:33N 29°47' W 095°05'1 0.9
2015-Feb-22 21:33N 29°46' W 095°05'0 0.3
2015-Feb-22 20:33N 29°46' W 095°05'6 5.8
2015-Feb-22 19:33N 29°42' W 095°00'9 9.0
2015-Feb-22 18:33N 29°34' W 094°55'10 9.1
2015-Feb-22 17:31N 29°26' W 094°50'4 0.1
2015-Feb-21 11:17N 29°23' W 094°53'3 4.4
2015-Feb-21 10:33N 29°22' W 094°50'5 4.9
2015-Feb-21 09:33N 29°27' W 094°51'9 8.9
2015-Feb-21 08:33N 29°35' W 094°56'8 8.1
2015-Feb-21 07:33N 29°42' W 094°60'6 6.1
2015-Feb-21 06:33N 29°46' W 095°05'1 1.1
2015-Feb-21 05:33N 29°47' W 095°04'0 0.0
2015-Feb-21 04:32N 29°47' W 095°04'0 0.0
2015-Feb-21 03:33N 29°47' W 095°04'0 0.0
2015-Feb-21 02:31N 29°47' W 095°04'0 0.1
2015-Feb-21 01:32N 29°47' W 095°04'0 0.0
2015-Feb-21 00:32N 29°47' W 095°04'0 0.5
2015-Feb-20 23:33N 29°47' W 095°04'5 4.5
2015-Feb-20 22:33N 29°44' W 095°08'3 3.3
2015-Feb-20 21:33N 29°44' W 095°12'0 0.0
2015-Feb-20 20:33N 29°44' W 095°12'0 0.0
2015-Feb-20 19:33N 29°44' W 095°12'0 0.0
2015-Feb-20 18:33N 29°44' W 095°12'0 0.0
2015-Feb-20 17:33N 29°44' W 095°12'0 0.0
2015-Feb-20 16:33N 29°44' W 095°12'  
Track history (hours):
 
Tides and Currents Weather Stations Pressure Air Temp Water Temp Dewpoint Dewpoint Depression Visibility Wind Speed Wind Dir Waves Ship Positions

Wes Sellars

Owner: Florida Marine, LLC, Mandeville, LA. More information available from US FCC via Universal Licensing System and Coast Guard Vessel Documentation Center.

Last reported at 2015-Mar-02 16:17 UTC. Time now 2015-Mar-02 23:08 UTC.
Position N 29°46' W 095°06'.

Length 27 m.

Type: Towing. MMSI: 367503760.

Date/timePositionNaut miles runAvg speedWind from/ knotsBaromVisibWave heightAir tempDewpointWater temp
2015-Mar-02 16:17N 29°46' W 095°06'0 0.0
2015-Mar-02 14:33N 29°46' W 095°06'0 0.0
2015-Mar-01 23:19N 29°46' W 095°06'1 1.5
2015-Mar-01 22:32N 29°46' W 095°05'0 0.0
2015-Mar-01 20:05N 29°46' W 095°05'0 0.0
2015-Mar-01 14:16N 29°46' W 095°05'0 0.0
2015-Mar-01 13:32N 29°46' W 095°05'0 0.0
2015-Mar-01 10:32N 29°46' W 095°05'0 0.0
2015-Mar-01 04:33N 29°46' W 095°05'2 1.1
2015-Mar-01 03:07N 29°45' W 095°06'0 0.1
2015-Mar-01 02:31N 29°45' W 095°06'0 0.0
2015-Mar-01 01:33N 29°45' W 095°06'0 0.0
2015-Mar-01 00:16N 29°45' W 095°06'0 0.0
2015-Feb-28 23:07N 29°45' W 095°06'0 0.0
2015-Feb-28 11:07N 29°45' W 095°06'2 0.9
2015-Feb-28 08:33N 29°47' W 095°04'1 0.7
2015-Feb-28 07:33N 29°47' W 095°04'1 0.4
2015-Feb-28 04:33N 29°46' W 095°05'1 0.1
2015-Feb-27 19:10N 29°46' W 095°06'0 0.0
2015-Feb-27 18:33N 29°46' W 095°06'0 0.0
2015-Feb-27 17:33N 29°46' W 095°06'0 0.0
2015-Feb-27 16:33N 29°46' W 095°06'0 0.0
2015-Feb-27 15:33N 29°46' W 095°06'0 0.0
2015-Feb-27 14:33N 29°46' W 095°06'0 0.0
2015-Feb-27 01:31N 29°46' W 095°06'0 0.0
2015-Feb-27 00:30N 29°46' W 095°06'0 0.0
2015-Feb-26 22:08N 29°46' W 095°06'0 0.0
2015-Feb-26 21:28N 29°46' W 095°06'0 0.0
2015-Feb-26 20:33N 29°46' W 095°06'0 0.0
2015-Feb-26 19:33N 29°46' W 095°06'0 0.0
2015-Feb-26 18:30N 29°46' W 095°06'0 0.0
2015-Feb-26 17:31N 29°46' W 095°06'0 0.0
2015-Feb-26 15:16N 29°46' W 095°06'0 0.0
2015-Feb-26 14:33N 29°46' W 095°06'0 0.0
2015-Feb-26 13:32N 29°46' W 095°06'0 0.0
2015-Feb-26 12:33N 29°46' W 095°06'0 0.0
2015-Feb-26 11:28N 29°46' W 095°06'0 0.0
2015-Feb-26 10:33N 29°46' W 095°06'0 0.0
2015-Feb-26 09:30N 29°46' W 095°06'0 0.0
2015-Feb-26 08:33N 29°46' W 095°06'2 2.1
2015-Feb-26 07:28N 29°47' W 095°04'0 0.0
2015-Feb-26 06:32N 29°47' W 095°04'3 3.3
2015-Feb-26 05:33N 29°45' W 095°06'5 0.4
2015-Feb-25 14:21N 29°44' W 095°12'0 0.0
2015-Feb-25 02:23N 29°44' W 095°12'6 7.2
2015-Feb-25 01:33N 29°46' W 095°05'2 1.1
2015-Feb-24 23:33N 29°47' W 095°04'0 0.0
2015-Feb-24 22:33N 29°47' W 095°04'0 0.0
2015-Feb-24 21:30N 29°47' W 095°04'0 0.0
2015-Feb-24 20:33N 29°47' W 095°04'2 0.3
2015-Feb-24 13:33N 29°46' W 095°06'0 0.0
2015-Feb-24 12:33N 29°46' W 095°06'0 0.0
2015-Feb-24 11:33N 29°46' W 095°06'0 0.0
2015-Feb-24 10:33N 29°46' W 095°06'0 0.0
2015-Feb-24 09:25N 29°46' W 095°06'0 0.0
2015-Feb-24 05:13N 29°46' W 095°06'0 0.0
2015-Feb-24 04:33N 29°46' W 095°06'0 0.0
2015-Feb-24 03:33N 29°46' W 095°06'0 0.0
2015-Feb-24 02:33N 29°46' W 095°06'0 0.0
2015-Feb-24 01:33N 29°46' W 095°06'0 0.0
2015-Feb-24 00:33N 29°46' W 095°06'0 0.0
2015-Feb-23 23:32N 29°46' W 095°06'0 0.0
2015-Feb-23 22:33N 29°46' W 095°06'0 0.0
2015-Feb-23 21:33N 29°46' W 095°06'0 0.0
2015-Feb-23 20:33N 29°46' W 095°06'0 0.0
2015-Feb-23 19:33N 29°46' W 095°06'0 0.0
2015-Feb-23 17:29N 29°46' W 095°06'0 0.0
2015-Feb-23 16:33N 29°46' W 095°06'0 0.0
2015-Feb-23 15:31N 29°46' W 095°06'0 0.0
2015-Feb-23 14:25N 29°46' W 095°06'0 0.0
2015-Feb-23 13:33N 29°46' W 095°06'0 0.0
2015-Feb-23 12:33N 29°46' W 095°06'0 0.0
2015-Feb-23 11:33N 29°46' W 095°06'0 0.0
2015-Feb-23 10:27N 29°46' W 095°06'0 0.0
2015-Feb-23 09:29N 29°46' W 095°06'1 1.3
2015-Feb-23 08:34N 29°46' W 095°05'2 1.7
2015-Feb-23 07:34N 29°47' W 095°04'1 1.2
2015-Feb-23 06:33N 29°46' W 095°05'0 0.0
2015-Feb-23 05:33N 29°46' W 095°05'0 0.0
2015-Feb-23 04:33N 29°46' W 095°05'0 0.0
2015-Feb-23 03:33N 29°46' W 095°05'0 0.0
2015-Feb-23 02:33N 29°46' W 095°05'0 0.0
2015-Feb-23 01:33N 29°46' W 095°05'1 0.8
2015-Feb-23 00:28N 29°47' W 095°05'0 0.0
2015-Feb-22 23:33N 29°47' W 095°05'0 0.0
2015-Feb-22 22:33N 29°47' W 095°05'1 0.9
2015-Feb-22 21:33N 29°46' W 095°05'0 0.3
2015-Feb-22 20:33N 29°46' W 095°05'6 5.8
2015-Feb-22 19:33N 29°42' W 095°00'9 9.0
2015-Feb-22 18:33N 29°34' W 094°55'10 9.1
2015-Feb-22 17:31N 29°26' W 094°50'4 0.1
2015-Feb-21 11:17N 29°23' W 094°53'3 4.4
2015-Feb-21 10:33N 29°22' W 094°50'5 4.9
2015-Feb-21 09:33N 29°27' W 094°51'9 8.9
2015-Feb-21 08:33N 29°35' W 094°56'8 8.1
2015-Feb-21 07:33N 29°42' W 094°60'6 6.1
2015-Feb-21 06:33N 29°46' W 095°05'1 1.1
2015-Feb-21 05:33N 29°47' W 095°04'0 0.0
2015-Feb-21 04:32N 29°47' W 095°04'0 0.0
2015-Feb-21 03:33N 29°47' W 095°04'0 0.0
2015-Feb-21 02:31N 29°47' W 095°04'0 0.1
2015-Feb-21 01:32N 29°47' W 095°04'0 0.0
2015-Feb-21 00:32N 29°47' W 095°04'0 0.5
2015-Feb-20 23:33N 29°47' W 095°04'5 4.5
2015-Feb-20 22:33N 29°44' W 095°08'3 3.3
2015-Feb-20 21:33N 29°44' W 095°12'0 0.0
2015-Feb-20 20:33N 29°44' W 095°12'0 0.0
2015-Feb-20 19:33N 29°44' W 095°12'0 0.0
2015-Feb-20 18:33N 29°44' W 095°12'0 0.0
2015-Feb-20 17:33N 29°44' W 095°12'0 0.0
2015-Feb-20 16:33N 29°44' W 095°12'  

Dump ship's entire track history